sensor_id;sensor_type;location;lat;lon;timestamp;P1;durP1;ratioP1;P2;durP2;ratioP2
75009;SDS011;63564;46.840;18.336;2023-03-23T00:00:53;5.70;;;2.10;;
75009;SDS011;63564;46.840;18.336;2023-03-23T00:03:54;4.60;;;2.00;;
75009;SDS011;63564;46.840;18.336;2023-03-23T00:06:57;6.32;;;2.17;;
75009;SDS011;63564;46.840;18.336;2023-03-23T00:10:01;5.88;;;2.40;;
75009;SDS011;63564;46.840;18.336;2023-03-23T00:13:02;6.30;;;2.30;;
75009;SDS011;63564;46.840;18.336;2023-03-23T00:16:02;5.15;;;2.35;;
75009;SDS011;63564;46.840;18.336;2023-03-23T00:19:04;5.23;;;2.07;;
75009;SDS011;63564;46.840;18.336;2023-03-23T00:22:07;5.55;;;2.40;;
75009;SDS011;63564;46.840;18.336;2023-03-23T00:25:07;5.73;;;2.20;;
75009;SDS011;63564;46.840;18.336;2023-03-23T00:28:08;4.63;;;2.23;;
75009;SDS011;63564;46.840;18.336;2023-03-23T00:31:09;5.10;;;2.20;;
75009;SDS011;63564;46.840;18.336;2023-03-23T00:34:09;5.60;;;2.20;;
75009;SDS011;63564;46.840;18.336;2023-03-23T00:37:12;4.93;;;2.17;;
75009;SDS011;63564;46.840;18.336;2023-03-23T00:40:12;4.97;;;2.20;;
75009;SDS011;63564;46.840;18.336;2023-03-23T00:43:19;6.30;;;2.45;;
75009;SDS011;63564;46.840;18.336;2023-03-23T00:46:20;5.43;;;2.15;;
75009;SDS011;63564;46.840;18.336;2023-03-23T00:49:20;5.30;;;2.37;;
75009;SDS011;63564;46.840;18.336;2023-03-23T00:52:24;4.65;;;2.05;;
75009;SDS011;63564;46.840;18.336;2023-03-23T00:55:25;5.60;;;2.50;;
75009;SDS011;63564;46.840;18.336;2023-03-23T00:58:26;5.73;;;2.40;;
75009;SDS011;63564;46.840;18.336;2023-03-23T01:01:26;5.47;;;2.10;;
75009;SDS011;63564;46.840;18.336;2023-03-23T01:04:26;4.97;;;2.17;;
75009;SDS011;63564;46.840;18.336;2023-03-23T01:07:28;5.57;;;2.38;;
75009;SDS011;63564;46.840;18.336;2023-03-23T01:10:31;5.18;;;2.10;;
75009;SDS011;63564;46.840;18.336;2023-03-23T01:13:32;5.00;;;2.20;;
75009;SDS011;63564;46.840;18.336;2023-03-23T01:16:33;4.53;;;2.00;;
75009;SDS011;63564;46.840;18.336;2023-03-23T01:19:33;5.13;;;2.00;;
75009;SDS011;63564;46.840;18.336;2023-03-23T01:22:34;4.90;;;2.20;;
75009;SDS011;63564;46.840;18.336;2023-03-23T01:25:35;5.70;;;2.45;;
75009;SDS011;63564;46.840;18.336;2023-03-23T01:28:36;5.63;;;2.20;;
75009;SDS011;63564;46.840;18.336;2023-03-23T01:31:37;6.35;;;2.45;;
75009;SDS011;63564;46.840;18.336;2023-03-23T01:34:37;6.57;;;2.77;;
75009;SDS011;63564;46.840;18.336;2023-03-23T01:37:38;5.33;;;2.13;;
75009;SDS011;63564;46.840;18.336;2023-03-23T01:40:38;5.75;;;2.30;;
75009;SDS011;63564;46.840;18.336;2023-03-23T01:46:58;4.87;;;2.00;;
75009;SDS011;63564;46.840;18.336;2023-03-23T01:49:59;5.45;;;2.15;;
75009;SDS011;63564;46.840;18.336;2023-03-23T01:53:00;5.72;;;2.20;;
75009;SDS011;63564;46.840;18.336;2023-03-23T01:56:02;6.78;;;2.72;;
75009;SDS011;63564;46.840;18.336;2023-03-23T01:59:03;4.50;;;2.10;;
75009;SDS011;63564;46.840;18.336;2023-03-23T02:02:05;4.47;;;2.13;;
75009;SDS011;63564;46.840;18.336;2023-03-23T02:05:08;4.97;;;2.10;;
75009;SDS011;63564;46.840;18.336;2023-03-23T02:08:13;4.57;;;2.10;;
75009;SDS011;63564;46.840;18.336;2023-03-23T02:11:15;4.32;;;2.17;;
75009;SDS011;63564;46.840;18.336;2023-03-23T02:14:20;4.93;;;2.28;;
75009;SDS011;63564;46.840;18.336;2023-03-23T02:17:24;6.28;;;2.40;;
75009;SDS011;63564;46.840;18.336;2023-03-23T02:33:36;4.57;;;1.83;;
75009;SDS011;63564;46.840;18.336;2023-03-23T02:37:03;5.57;;;2.33;;
75009;SDS011;63564;46.840;18.336;2023-03-23T02:40:12;5.53;;;2.37;;
75009;SDS011;63564;46.840;18.336;2023-03-23T02:43:18;5.05;;;2.17;;
75009;SDS011;63564;46.840;18.336;2023-03-23T02:46:22;5.13;;;2.28;;
75009;SDS011;63564;46.840;18.336;2023-03-23T02:49:24;4.90;;;2.10;;
75009;SDS011;63564;46.840;18.336;2023-03-23T02:52:27;6.13;;;2.45;;
75009;SDS011;63564;46.840;18.336;2023-03-23T02:55:31;5.47;;;2.10;;
75009;SDS011;63564;46.840;18.336;2023-03-23T02:58:32;7.15;;;2.83;;
75009;SDS011;63564;46.840;18.336;2023-03-23T03:04:35;4.50;;;1.90;;
75009;SDS011;63564;46.840;18.336;2023-03-23T03:07:45;4.95;;;2.28;;
75009;SDS011;63564;46.840;18.336;2023-03-23T03:14:03;5.55;;;1.98;;
75009;SDS011;63564;46.840;18.336;2023-03-23T03:20:27;5.57;;;2.67;;
75009;SDS011;63564;46.840;18.336;2023-03-23T03:23:30;5.43;;;2.13;;
75009;SDS011;63564;46.840;18.336;2023-03-23T03:26:33;5.30;;;2.40;;
75009;SDS011;63564;46.840;18.336;2023-03-23T03:29:35;4.03;;;2.00;;
75009;SDS011;63564;46.840;18.336;2023-03-23T03:32:43;5.72;;;1.98;;
75009;SDS011;63564;46.840;18.336;2023-03-23T03:35:46;5.70;;;2.60;;
75009;SDS011;63564;46.840;18.336;2023-03-23T03:38:49;5.10;;;2.30;;
75009;SDS011;63564;46.840;18.336;2023-03-23T03:41:50;5.40;;;2.03;;
75009;SDS011;63564;46.840;18.336;2023-03-23T03:44:50;4.28;;;2.10;;
75009;SDS011;63564;46.840;18.336;2023-03-23T03:47:51;5.00;;;2.10;;
75009;SDS011;63564;46.840;18.336;2023-03-23T03:50:51;4.60;;;2.00;;
75009;SDS011;63564;46.840;18.336;2023-03-23T03:53:52;5.50;;;2.03;;
75009;SDS011;63564;46.840;18.336;2023-03-23T03:56:52;6.83;;;2.30;;
75009;SDS011;63564;46.840;18.336;2023-03-23T04:00:07;5.57;;;2.33;;
75009;SDS011;63564;46.840;18.336;2023-03-23T04:03:14;6.57;;;2.70;;
75009;SDS011;63564;46.840;18.336;2023-03-23T04:06:16;4.68;;;2.22;;
75009;SDS011;63564;46.840;18.336;2023-03-23T04:09:18;7.53;;;2.40;;
75009;SDS011;63564;46.840;18.336;2023-03-23T04:12:19;6.20;;;2.65;;
75009;SDS011;63564;46.840;18.336;2023-03-23T04:15:19;7.40;;;3.00;;
75009;SDS011;63564;46.840;18.336;2023-03-23T04:18:20;6.32;;;2.65;;
75009;SDS011;63564;46.840;18.336;2023-03-23T04:21:21;7.43;;;3.97;;
75009;SDS011;63564;46.840;18.336;2023-03-23T04:24:22;8.25;;;4.05;;
75009;SDS011;63564;46.840;18.336;2023-03-23T04:27:24;8.40;;;3.70;;
75009;SDS011;63564;46.840;18.336;2023-03-23T04:30:28;6.35;;;3.28;;
75009;SDS011;63564;46.840;18.336;2023-03-23T04:33:29;8.00;;;3.75;;
75009;SDS011;63564;46.840;18.336;2023-03-23T04:36:30;7.70;;;3.15;;
75009;SDS011;63564;46.840;18.336;2023-03-23T04:39:33;7.30;;;3.03;;
75009;SDS011;63564;46.840;18.336;2023-03-23T04:42:34;6.80;;;2.80;;
75009;SDS011;63564;46.840;18.336;2023-03-23T04:45:34;6.37;;;2.50;;
75009;SDS011;63564;46.840;18.336;2023-03-23T04:48:37;5.40;;;2.70;;
75009;SDS011;63564;46.840;18.336;2023-03-23T04:51:39;7.30;;;2.90;;
75009;SDS011;63564;46.840;18.336;2023-03-23T04:54:39;5.95;;;2.47;;
75009;SDS011;63564;46.840;18.336;2023-03-23T04:57:40;6.30;;;2.73;;
75009;SDS011;63564;46.840;18.336;2023-03-23T05:00:41;5.97;;;2.63;;
75009;SDS011;63564;46.840;18.336;2023-03-23T05:03:43;7.50;;;3.53;;
75009;SDS011;63564;46.840;18.336;2023-03-23T05:06:44;7.30;;;3.00;;
75009;SDS011;63564;46.840;18.336;2023-03-23T05:09:48;8.97;;;3.30;;
75009;SDS011;63564;46.840;18.336;2023-03-23T05:12:49;7.70;;;3.42;;
75009;SDS011;63564;46.840;18.336;2023-03-23T05:15:50;7.28;;;3.05;;
75009;SDS011;63564;46.840;18.336;2023-03-23T05:18:50;6.30;;;2.83;;
75009;SDS011;63564;46.840;18.336;2023-03-23T05:21:50;6.40;;;3.30;;
75009;SDS011;63564;46.840;18.336;2023-03-23T05:24:51;8.77;;;3.40;;
75009;SDS011;63564;46.840;18.336;2023-03-23T05:27:51;10.00;;;4.17;;
75009;SDS011;63564;46.840;18.336;2023-03-23T05:30:53;17.77;;;6.15;;
75009;SDS011;63564;46.840;18.336;2023-03-23T05:33:53;9.70;;;4.37;;
75009;SDS011;63564;46.840;18.336;2023-03-23T05:36:54;8.90;;;3.75;;
75009;SDS011;63564;46.840;18.336;2023-03-23T05:40:00;7.73;;;3.60;;
75009;SDS011;63564;46.840;18.336;2023-03-23T05:43:06;7.47;;;3.58;;
75009;SDS011;63564;46.840;18.336;2023-03-23T05:46:06;6.75;;;3.13;;
75009;SDS011;63564;46.840;18.336;2023-03-23T05:49:08;10.33;;;3.90;;
75009;SDS011;63564;46.840;18.336;2023-03-23T05:52:08;10.90;;;3.63;;
75009;SDS011;63564;46.840;18.336;2023-03-23T05:55:09;10.77;;;4.10;;
75009;SDS011;63564;46.840;18.336;2023-03-23T05:58:10;9.40;;;4.32;;
75009;SDS011;63564;46.840;18.336;2023-03-23T06:01:10;7.93;;;3.67;;
75009;SDS011;63564;46.840;18.336;2023-03-23T06:04:14;7.57;;;3.72;;
75009;SDS011;63564;46.840;18.336;2023-03-23T06:07:15;7.70;;;3.67;;
75009;SDS011;63564;46.840;18.336;2023-03-23T06:10:16;7.15;;;3.47;;
75009;SDS011;63564;46.840;18.336;2023-03-23T06:13:16;7.77;;;3.87;;
75009;SDS011;63564;46.840;18.336;2023-03-23T06:16:17;8.77;;;4.25;;
75009;SDS011;63564;46.840;18.336;2023-03-23T06:19:18;8.32;;;3.95;;
75009;SDS011;63564;46.840;18.336;2023-03-23T06:22:19;7.83;;;3.33;;
75009;SDS011;63564;46.840;18.336;2023-03-23T06:25:20;8.13;;;4.20;;
75009;SDS011;63564;46.840;18.336;2023-03-23T06:28:20;11.32;;;4.22;;
75009;SDS011;63564;46.840;18.336;2023-03-23T06:31:21;7.13;;;3.60;;
75009;SDS011;63564;46.840;18.336;2023-03-23T06:34:22;12.50;;;4.00;;
75009;SDS011;63564;46.840;18.336;2023-03-23T06:37:23;10.53;;;4.40;;
75009;SDS011;63564;46.840;18.336;2023-03-23T06:40:24;12.20;;;6.03;;
75009;SDS011;63564;46.840;18.336;2023-03-23T06:43:25;11.23;;;5.50;;
75009;SDS011;63564;46.840;18.336;2023-03-23T06:46:25;9.33;;;3.83;;
75009;SDS011;63564;46.840;18.336;2023-03-23T06:49:27;8.02;;;3.88;;
75009;SDS011;63564;46.840;18.336;2023-03-23T06:52:27;8.13;;;4.43;;
75009;SDS011;63564;46.840;18.336;2023-03-23T06:55:28;8.15;;;3.90;;
75009;SDS011;63564;46.840;18.336;2023-03-23T06:58:28;8.33;;;3.37;;
75009;SDS011;63564;46.840;18.336;2023-03-23T07:01:29;8.55;;;3.75;;
75009;SDS011;63564;46.840;18.336;2023-03-23T07:04:30;7.10;;;3.60;;
75009;SDS011;63564;46.840;18.336;2023-03-23T07:07:30;5.20;;;2.60;;
75009;SDS011;63564;46.840;18.336;2023-03-23T07:10:31;5.60;;;2.47;;
75009;SDS011;63564;46.840;18.336;2023-03-23T07:13:32;6.50;;;2.47;;
75009;SDS011;63564;46.840;18.336;2023-03-23T07:16:32;5.83;;;2.37;;
75009;SDS011;63564;46.840;18.336;2023-03-23T07:19:33;5.53;;;2.40;;
75009;SDS011;63564;46.840;18.336;2023-03-23T07:22:34;4.82;;;2.10;;
75009;SDS011;63564;46.840;18.336;2023-03-23T07:25:35;5.10;;;2.03;;
75009;SDS011;63564;46.840;18.336;2023-03-23T07:28:35;4.27;;;2.03;;
75009;SDS011;63564;46.840;18.336;2023-03-23T07:31:36;4.72;;;1.98;;
75009;SDS011;63564;46.840;18.336;2023-03-23T07:34:37;4.87;;;2.23;;
75009;SDS011;63564;46.840;18.336;2023-03-23T07:37:37;4.57;;;1.92;;
75009;SDS011;63564;46.840;18.336;2023-03-23T07:40:38;4.93;;;2.17;;
75009;SDS011;63564;46.840;18.336;2023-03-23T07:43:38;4.17;;;1.87;;
75009;SDS011;63564;46.840;18.336;2023-03-23T07:46:39;3.83;;;1.93;;
75009;SDS011;63564;46.840;18.336;2023-03-23T07:49:39;3.92;;;1.90;;
75009;SDS011;63564;46.840;18.336;2023-03-23T07:52:40;4.23;;;2.00;;
75009;SDS011;63564;46.840;18.336;2023-03-23T07:55:41;5.10;;;2.20;;
75009;SDS011;63564;46.840;18.336;2023-03-23T07:58:41;5.07;;;2.20;;
75009;SDS011;63564;46.840;18.336;2023-03-23T08:01:42;5.40;;;2.13;;
75009;SDS011;63564;46.840;18.336;2023-03-23T08:04:42;4.17;;;2.20;;
75009;SDS011;63564;46.840;18.336;2023-03-23T08:07:44;5.57;;;2.20;;
75009;SDS011;63564;46.840;18.336;2023-03-23T08:10:53;4.87;;;1.83;;
75009;SDS011;63564;46.840;18.336;2023-03-23T08:14:02;4.25;;;2.00;;
75009;SDS011;63564;46.840;18.336;2023-03-23T08:17:02;3.72;;;1.90;;
75009;SDS011;63564;46.840;18.336;2023-03-23T08:20:03;5.03;;;2.53;;
75009;SDS011;63564;46.840;18.336;2023-03-23T08:23:12;4.97;;;2.30;;
75009;SDS011;63564;46.840;18.336;2023-03-23T08:26:12;3.57;;;1.87;;
75009;SDS011;63564;46.840;18.336;2023-03-23T08:29:15;4.65;;;2.30;;
75009;SDS011;63564;46.840;18.336;2023-03-23T08:32:16;4.90;;;2.20;;
75009;SDS011;63564;46.840;18.336;2023-03-23T08:35:17;5.37;;;2.47;;
75009;SDS011;63564;46.840;18.336;2023-03-23T08:38:18;4.87;;;2.30;;
75009;SDS011;63564;46.840;18.336;2023-03-23T08:41:21;6.25;;;2.97;;
75009;SDS011;63564;46.840;18.336;2023-03-23T08:44:21;4.40;;;2.25;;
75009;SDS011;63564;46.840;18.336;2023-03-23T08:47:22;4.33;;;2.10;;
75009;SDS011;63564;46.840;18.336;2023-03-23T08:50:24;4.20;;;2.20;;
75009;SDS011;63564;46.840;18.336;2023-03-23T08:53:26;4.88;;;2.10;;
75009;SDS011;63564;46.840;18.336;2023-03-23T08:56:30;5.10;;;2.50;;
75009;SDS011;63564;46.840;18.336;2023-03-23T08:59:30;4.03;;;2.03;;
75009;SDS011;63564;46.840;18.336;2023-03-23T09:02:31;4.17;;;1.90;;
75009;SDS011;63564;46.840;18.336;2023-03-23T09:05:34;3.95;;;2.03;;
75009;SDS011;63564;46.840;18.336;2023-03-23T09:08:35;4.38;;;2.17;;
75009;SDS011;63564;46.840;18.336;2023-03-23T09:11:36;3.83;;;1.87;;
75009;SDS011;63564;46.840;18.336;2023-03-23T09:14:37;4.60;;;2.00;;
75009;SDS011;63564;46.840;18.336;2023-03-23T09:17:39;4.65;;;2.10;;
75009;SDS011;63564;46.840;18.336;2023-03-23T09:20:41;4.57;;;1.93;;
75009;SDS011;63564;46.840;18.336;2023-03-23T09:23:42;4.20;;;2.17;;
75009;SDS011;63564;46.840;18.336;2023-03-23T09:26:44;5.70;;;2.10;;
75009;SDS011;63564;46.840;18.336;2023-03-23T09:29:45;4.40;;;2.25;;
75009;SDS011;63564;46.840;18.336;2023-03-23T09:32:48;5.18;;;2.22;;
75009;SDS011;63564;46.840;18.336;2023-03-23T09:35:49;5.00;;;2.30;;
75009;SDS011;63564;46.840;18.336;2023-03-23T09:38:49;5.10;;;2.30;;
75009;SDS011;63564;46.840;18.336;2023-03-23T09:45:27;3.77;;;2.07;;
75009;SDS011;63564;46.840;18.336;2023-03-23T09:52:14;4.57;;;2.13;;
75009;SDS011;63564;46.840;18.336;2023-03-23T09:55:16;4.72;;;2.20;;
75009;SDS011;63564;46.840;18.336;2023-03-23T09:58:33;4.75;;;2.30;;
75009;SDS011;63564;46.840;18.336;2023-03-23T10:02:41;4.50;;;2.50;;
75009;SDS011;63564;46.840;18.336;2023-03-23T10:06:00;5.18;;;2.50;;
75009;SDS011;63564;46.840;18.336;2023-03-23T10:08:56;4.28;;;2.38;;
75009;SDS011;63564;46.840;18.336;2023-03-23T10:15:19;6.97;;;2.33;;
75009;SDS011;63564;46.840;18.336;2023-03-23T10:18:24;5.40;;;2.40;;
75009;SDS011;63564;46.840;18.336;2023-03-23T10:21:30;3.95;;;2.10;;
75009;SDS011;63564;46.840;18.336;2023-03-23T10:24:38;5.43;;;2.40;;
75009;SDS011;63564;46.840;18.336;2023-03-23T10:28:10;5.13;;;2.53;;
75009;SDS011;63564;46.840;18.336;2023-03-23T10:31:13;4.93;;;2.25;;
75009;SDS011;63564;46.840;18.336;2023-03-23T10:37:22;4.38;;;2.20;;
75009;SDS011;63564;46.840;18.336;2023-03-23T10:40:26;4.03;;;2.17;;
75009;SDS011;63564;46.840;18.336;2023-03-23T10:43:29;4.97;;;2.40;;
75009;SDS011;63564;46.840;18.336;2023-03-23T10:49:54;6.00;;;2.28;;
75009;SDS011;63564;46.840;18.336;2023-03-23T10:52:58;5.13;;;2.20;;
75009;SDS011;63564;46.840;18.336;2023-03-23T10:56:01;4.10;;;2.00;;
75009;SDS011;63564;46.840;18.336;2023-03-23T10:59:21;4.93;;;2.15;;
75009;SDS011;63564;46.840;18.336;2023-03-23T11:02:27;4.22;;;2.30;;
75009;SDS011;63564;46.840;18.336;2023-03-23T11:11:58;4.93;;;2.10;;
75009;SDS011;63564;46.840;18.336;2023-03-23T11:15:20;4.93;;;2.03;;
75009;SDS011;63564;46.840;18.336;2023-03-23T11:18:23;3.85;;;1.88;;
75009;SDS011;63564;46.840;18.336;2023-03-23T11:21:26;3.90;;;2.00;;
75009;SDS011;63564;46.840;18.336;2023-03-23T11:24:27;4.15;;;2.10;;
75009;SDS011;63564;46.840;18.336;2023-03-23T11:27:29;9.60;;;2.35;;
75009;SDS011;63564;46.840;18.336;2023-03-23T11:30:30;4.60;;;2.00;;
75009;SDS011;63564;46.840;18.336;2023-03-23T11:34:32;3.97;;;1.92;;
75009;SDS011;63564;46.840;18.336;2023-03-23T11:37:24;4.20;;;2.00;;
75009;SDS011;63564;46.840;18.336;2023-03-23T11:40:26;4.30;;;2.10;;
75009;SDS011;63564;46.840;18.336;2023-03-23T11:43:29;4.05;;;2.10;;
75009;SDS011;63564;46.840;18.336;2023-03-23T11:46:39;4.82;;;2.30;;
75009;SDS011;63564;46.840;18.336;2023-03-23T11:56:59;4.67;;;2.30;;
75009;SDS011;63564;46.840;18.336;2023-03-23T11:59:59;4.55;;;1.98;;
75009;SDS011;63564;46.840;18.336;2023-03-23T12:13:42;4.35;;;2.55;;
75009;SDS011;63564;46.840;18.336;2023-03-23T12:20:26;3.97;;;2.13;;
75009;SDS011;63564;46.840;18.336;2023-03-23T12:26:50;3.58;;;2.00;;
75009;SDS011;63564;46.840;18.336;2023-03-23T12:43:26;4.75;;;2.13;;
75009;SDS011;63564;46.840;18.336;2023-03-23T12:46:59;4.72;;;2.30;;
75009;SDS011;63564;46.840;18.336;2023-03-23T12:53:32;4.40;;;2.28;;
75009;SDS011;63564;46.840;18.336;2023-03-23T12:56:45;4.93;;;2.03;;
75009;SDS011;63564;46.840;18.336;2023-03-23T13:06:31;4.03;;;2.10;;
75009;SDS011;63564;46.840;18.336;2023-03-23T13:09:47;5.05;;;2.10;;
75009;SDS011;63564;46.840;18.336;2023-03-23T13:12:52;3.77;;;2.20;;
75009;SDS011;63564;46.840;18.336;2023-03-23T13:16:06;5.15;;;2.55;;
75009;SDS011;63564;46.840;18.336;2023-03-23T13:25:50;4.60;;;2.58;;
75009;SDS011;63564;46.840;18.336;2023-03-23T13:29:08;4.40;;;2.30;;
75009;SDS011;63564;46.840;18.336;2023-03-23T13:32:17;4.72;;;2.40;;
75009;SDS011;63564;46.840;18.336;2023-03-23T13:35:19;4.72;;;2.50;;
75009;SDS011;63564;46.840;18.336;2023-03-23T13:38:23;5.43;;;2.60;;
75009;SDS011;63564;46.840;18.336;2023-03-23T13:41:26;5.00;;;2.90;;
75009;SDS011;63564;46.840;18.336;2023-03-23T13:44:38;4.70;;;2.50;;
75009;SDS011;63564;46.840;18.336;2023-03-23T13:47:44;5.18;;;2.53;;
75009;SDS011;63564;46.840;18.336;2023-03-23T13:50:54;4.00;;;2.35;;
75009;SDS011;63564;46.840;18.336;2023-03-23T14:04:15;3.30;;;1.70;;
75009;SDS011;63564;46.840;18.336;2023-03-23T14:07:17;4.88;;;2.30;;
75009;SDS011;63564;46.840;18.336;2023-03-23T14:10:19;5.13;;;2.50;;
75009;SDS011;63564;46.840;18.336;2023-03-23T14:13:21;5.27;;;2.60;;
75009;SDS011;63564;46.840;18.336;2023-03-23T14:16:44;5.53;;;2.50;;
75009;SDS011;63564;46.840;18.336;2023-03-23T14:19:53;5.65;;;2.58;;
75009;SDS011;63564;46.840;18.336;2023-03-23T14:22:55;5.20;;;2.78;;
75009;SDS011;63564;46.840;18.336;2023-03-23T14:25:58;5.00;;;2.37;;
75009;SDS011;63564;46.840;18.336;2023-03-23T14:29:09;4.35;;;2.40;;
75009;SDS011;63564;46.840;18.336;2023-03-23T14:32:14;4.95;;;2.53;;
75009;SDS011;63564;46.840;18.336;2023-03-23T14:35:21;4.57;;;2.53;;
75009;SDS011;63564;46.840;18.336;2023-03-23T14:38:23;5.17;;;2.60;;
75009;SDS011;63564;46.840;18.336;2023-03-23T14:41:28;5.10;;;2.53;;
75009;SDS011;63564;46.840;18.336;2023-03-23T14:44:31;4.32;;;2.35;;
75009;SDS011;63564;46.840;18.336;2023-03-23T14:47:34;4.55;;;2.40;;
75009;SDS011;63564;46.840;18.336;2023-03-23T14:50:39;4.82;;;2.78;;
75009;SDS011;63564;46.840;18.336;2023-03-23T14:53:41;6.50;;;3.07;;
75009;SDS011;63564;46.840;18.336;2023-03-23T14:56:42;5.10;;;2.30;;
75009;SDS011;63564;46.840;18.336;2023-03-23T14:59:44;4.85;;;2.13;;
75009;SDS011;63564;46.840;18.336;2023-03-23T15:02:55;4.72;;;2.50;;
75009;SDS011;63564;46.840;18.336;2023-03-23T15:05:59;7.28;;;2.72;;
75009;SDS011;63564;46.840;18.336;2023-03-23T15:09:05;4.80;;;2.80;;
75009;SDS011;63564;46.840;18.336;2023-03-23T15:12:12;5.10;;;2.70;;
75009;SDS011;63564;46.840;18.336;2023-03-23T15:15:27;5.53;;;2.60;;
75009;SDS011;63564;46.840;18.336;2023-03-23T15:18:33;5.13;;;2.70;;
75009;SDS011;63564;46.840;18.336;2023-03-23T15:21:45;4.18;;;1.98;;
75009;SDS011;63564;46.840;18.336;2023-03-23T15:24:51;4.60;;;2.50;;
75009;SDS011;63564;46.840;18.336;2023-03-23T15:27:54;5.13;;;2.67;;
75009;SDS011;63564;46.840;18.336;2023-03-23T15:30:57;4.90;;;2.55;;
75009;SDS011;63564;46.840;18.336;2023-03-23T15:34:03;4.95;;;2.65;;
75009;SDS011;63564;46.840;18.336;2023-03-23T15:37:20;5.78;;;2.53;;
75009;SDS011;63564;46.840;18.336;2023-03-23T15:40:26;5.73;;;3.00;;
75009;SDS011;63564;46.840;18.336;2023-03-23T15:43:35;5.90;;;2.63;;
75009;SDS011;63564;46.840;18.336;2023-03-23T15:46:51;5.60;;;2.63;;
75009;SDS011;63564;46.840;18.336;2023-03-23T15:50:02;5.30;;;2.90;;
75009;SDS011;63564;46.840;18.336;2023-03-23T15:53:15;5.05;;;2.58;;
75009;SDS011;63564;46.840;18.336;2023-03-23T15:56:29;4.90;;;2.40;;
75009;SDS011;63564;46.840;18.336;2023-03-23T15:59:31;4.50;;;2.50;;
75009;SDS011;63564;46.840;18.336;2023-03-23T16:02:31;4.55;;;2.42;;
75009;SDS011;63564;46.840;18.336;2023-03-23T16:05:33;5.20;;;2.60;;
75009;SDS011;63564;46.840;18.336;2023-03-23T16:08:34;4.90;;;2.35;;
75009;SDS011;63564;46.840;18.336;2023-03-23T16:11:39;4.60;;;2.40;;
75009;SDS011;63564;46.840;18.336;2023-03-23T16:14:41;5.10;;;2.42;;
75009;SDS011;63564;46.840;18.336;2023-03-23T16:17:41;4.77;;;2.60;;
75009;SDS011;63564;46.840;18.336;2023-03-23T16:20:42;4.20;;;2.28;;
75009;SDS011;63564;46.840;18.336;2023-03-23T16:23:42;5.00;;;2.60;;
75009;SDS011;63564;46.840;18.336;2023-03-23T16:26:45;5.30;;;2.85;;
75009;SDS011;63564;46.840;18.336;2023-03-23T16:29:45;5.47;;;2.50;;
75009;SDS011;63564;46.840;18.336;2023-03-23T16:32:46;4.73;;;2.40;;
75009;SDS011;63564;46.840;18.336;2023-03-23T16:35:46;6.20;;;2.70;;
75009;SDS011;63564;46.840;18.336;2023-03-23T16:38:47;5.47;;;2.58;;
75009;SDS011;63564;46.840;18.336;2023-03-23T16:41:47;4.83;;;2.30;;
75009;SDS011;63564;46.840;18.336;2023-03-23T16:44:48;5.40;;;2.40;;
75009;SDS011;63564;46.840;18.336;2023-03-23T16:47:49;5.53;;;2.50;;
75009;SDS011;63564;46.840;18.336;2023-03-23T16:50:50;5.40;;;2.60;;
75009;SDS011;63564;46.840;18.336;2023-03-23T16:53:51;5.28;;;2.75;;
75009;SDS011;63564;46.840;18.336;2023-03-23T16:56:52;5.27;;;2.50;;
75009;SDS011;63564;46.840;18.336;2023-03-23T16:59:52;4.43;;;2.27;;
75009;SDS011;63564;46.840;18.336;2023-03-23T17:02:53;4.47;;;2.37;;
75009;SDS011;63564;46.840;18.336;2023-03-23T17:05:56;4.95;;;2.63;;
75009;SDS011;63564;46.840;18.336;2023-03-23T17:08:58;5.22;;;2.47;;
75009;SDS011;63564;46.840;18.336;2023-03-23T17:11:59;4.77;;;2.40;;
75009;SDS011;63564;46.840;18.336;2023-03-23T17:15:00;4.97;;;2.50;;
75009;SDS011;63564;46.840;18.336;2023-03-23T17:18:01;4.93;;;2.30;;
75009;SDS011;63564;46.840;18.336;2023-03-23T17:21:01;5.10;;;2.38;;
75009;SDS011;63564;46.840;18.336;2023-03-23T17:24:02;5.10;;;2.43;;
75009;SDS011;63564;46.840;18.336;2023-03-23T17:27:03;5.15;;;2.58;;
75009;SDS011;63564;46.840;18.336;2023-03-23T17:30:04;5.33;;;2.70;;
75009;SDS011;63564;46.840;18.336;2023-03-23T17:33:05;5.93;;;2.88;;
75009;SDS011;63564;46.840;18.336;2023-03-23T17:36:06;4.73;;;2.40;;
75009;SDS011;63564;46.840;18.336;2023-03-23T17:39:07;4.90;;;2.58;;
75009;SDS011;63564;46.840;18.336;2023-03-23T17:42:08;5.47;;;2.30;;
75009;SDS011;63564;46.840;18.336;2023-03-23T17:45:08;5.03;;;2.50;;
75009;SDS011;63564;46.840;18.336;2023-03-23T17:48:09;6.30;;;2.00;;
75009;SDS011;63564;46.840;18.336;2023-03-23T17:51:10;5.00;;;2.35;;
75009;SDS011;63564;46.840;18.336;2023-03-23T17:54:11;4.30;;;2.40;;
75009;SDS011;63564;46.840;18.336;2023-03-23T17:57:11;4.80;;;2.30;;
75009;SDS011;63564;46.840;18.336;2023-03-23T18:00:12;5.07;;;2.17;;
75009;SDS011;63564;46.840;18.336;2023-03-23T18:03:14;7.28;;;2.70;;
75009;SDS011;63564;46.840;18.336;2023-03-23T18:06:15;4.70;;;2.20;;
75009;SDS011;63564;46.840;18.336;2023-03-23T18:09:15;5.60;;;2.50;;
75009;SDS011;63564;46.840;18.336;2023-03-23T18:12:16;5.37;;;2.60;;
75009;SDS011;63564;46.840;18.336;2023-03-23T18:15:17;4.68;;;2.13;;
75009;SDS011;63564;46.840;18.336;2023-03-23T18:18:18;6.30;;;2.30;;
75009;SDS011;63564;46.840;18.336;2023-03-23T18:21:20;5.33;;;2.30;;
75009;SDS011;63564;46.840;18.336;2023-03-23T18:24:22;4.97;;;2.50;;
75009;SDS011;63564;46.840;18.336;2023-03-23T18:27:23;5.93;;;2.55;;
75009;SDS011;63564;46.840;18.336;2023-03-23T18:30:24;5.88;;;2.70;;
75009;SDS011;63564;46.840;18.336;2023-03-23T18:33:27;5.77;;;2.50;;
75009;SDS011;63564;46.840;18.336;2023-03-23T18:36:28;6.10;;;2.87;;
75009;SDS011;63564;46.840;18.336;2023-03-23T18:39:30;4.68;;;2.60;;
75009;SDS011;63564;46.840;18.336;2023-03-23T18:42:33;4.77;;;2.50;;
75009;SDS011;63564;46.840;18.336;2023-03-23T18:45:35;5.57;;;2.22;;
75009;SDS011;63564;46.840;18.336;2023-03-23T18:48:36;6.20;;;2.53;;
75009;SDS011;63564;46.840;18.336;2023-03-23T18:51:39;4.72;;;2.30;;
75009;SDS011;63564;46.840;18.336;2023-03-23T18:54:40;4.33;;;2.20;;
75009;SDS011;63564;46.840;18.336;2023-03-23T18:57:44;4.95;;;2.33;;
75009;SDS011;63564;46.840;18.336;2023-03-23T19:00:45;5.28;;;2.25;;
75009;SDS011;63564;46.840;18.336;2023-03-23T19:03:47;5.20;;;2.27;;
75009;SDS011;63564;46.840;18.336;2023-03-23T19:06:48;5.53;;;2.40;;
75009;SDS011;63564;46.840;18.336;2023-03-23T19:09:49;5.10;;;2.47;;
75009;SDS011;63564;46.840;18.336;2023-03-23T19:12:50;6.35;;;2.22;;
75009;SDS011;63564;46.840;18.336;2023-03-23T19:15:52;4.43;;;2.13;;
75009;SDS011;63564;46.840;18.336;2023-03-23T19:18:53;4.70;;;2.10;;
75009;SDS011;63564;46.840;18.336;2023-03-23T19:21:53;5.77;;;2.50;;
75009;SDS011;63564;46.840;18.336;2023-03-23T19:24:54;7.35;;;2.58;;
75009;SDS011;63564;46.840;18.336;2023-03-23T19:27:56;5.57;;;2.37;;
75009;SDS011;63564;46.840;18.336;2023-03-23T19:30:57;4.80;;;2.40;;
75009;SDS011;63564;46.840;18.336;2023-03-23T19:34:01;4.95;;;2.28;;
75009;SDS011;63564;46.840;18.336;2023-03-23T19:37:05;5.10;;;2.65;;
75009;SDS011;63564;46.840;18.336;2023-03-23T19:40:06;5.32;;;2.55;;
75009;SDS011;63564;46.840;18.336;2023-03-23T19:43:09;7.00;;;2.43;;
75009;SDS011;63564;46.840;18.336;2023-03-23T19:46:10;6.43;;;2.70;;
75009;SDS011;63564;46.840;18.336;2023-03-23T19:49:11;5.70;;;2.40;;
75009;SDS011;63564;46.840;18.336;2023-03-23T19:52:12;5.83;;;2.53;;
75009;SDS011;63564;46.840;18.336;2023-03-23T19:55:13;5.50;;;2.50;;
75009;SDS011;63564;46.840;18.336;2023-03-23T19:58:14;6.55;;;2.30;;
75009;SDS011;63564;46.840;18.336;2023-03-23T20:01:21;5.90;;;2.83;;